sensor_id;sensor_type;location;lat;lon;timestamp;temperature;humidity
32366;DHT22;18837;46.832;16.838;2024-01-15T00:01:55;9.90;64.70
32366;DHT22;18837;46.832;16.838;2024-01-15T00:04:21;9.90;64.40
32366;DHT22;18837;46.832;16.838;2024-01-15T00:06:46;10.00;64.10
32366;DHT22;18837;46.832;16.838;2024-01-15T00:09:12;10.00;64.00
32366;DHT22;18837;46.832;16.838;2024-01-15T00:11:38;9.90;64.10
32366;DHT22;18837;46.832;16.838;2024-01-15T00:14:04;9.90;64.40
32366;DHT22;18837;46.832;16.838;2024-01-15T00:16:29;9.90;64.30
32366;DHT22;18837;46.832;16.838;2024-01-15T00:18:55;9.80;64.50
32366;DHT22;18837;46.832;16.838;2024-01-15T00:21:21;9.80;64.30
32366;DHT22;18837;46.832;16.838;2024-01-15T00:23:47;9.80;64.50
32366;DHT22;18837;46.832;16.838;2024-01-15T00:26:13;9.80;64.60
32366;DHT22;18837;46.832;16.838;2024-01-15T00:28:39;9.80;64.70
32366;DHT22;18837;46.832;16.838;2024-01-15T00:31:05;9.70;64.50
32366;DHT22;18837;46.832;16.838;2024-01-15T00:33:31;9.70;64.50
32366;DHT22;18837;46.832;16.838;2024-01-15T00:35:57;9.80;64.60
32366;DHT22;18837;46.832;16.838;2024-01-15T00:38:22;10.00;64.50
32366;DHT22;18837;46.832;16.838;2024-01-15T00:40:48;9.80;64.20
32366;DHT22;18837;46.832;16.838;2024-01-15T00:43:14;9.80;64.30
32366;DHT22;18837;46.832;16.838;2024-01-15T00:45:40;9.80;64.20
32366;DHT22;18837;46.832;16.838;2024-01-15T00:48:06;9.70;64.20
32366;DHT22;18837;46.832;16.838;2024-01-15T00:50:32;9.70;64.30
32366;DHT22;18837;46.832;16.838;2024-01-15T00:52:58;9.70;64.30
32366;DHT22;18837;46.832;16.838;2024-01-15T00:55:23;9.70;64.40
32366;DHT22;18837;46.832;16.838;2024-01-15T00:57:49;9.60;64.30
32366;DHT22;18837;46.832;16.838;2024-01-15T01:00:15;9.60;64.30
32366;DHT22;18837;46.832;16.838;2024-01-15T01:02:41;9.60;64.80
32366;DHT22;18837;46.832;16.838;2024-01-15T01:05:08;9.60;64.70
32366;DHT22;18837;46.832;16.838;2024-01-15T01:07:45;9.60;64.60
32366;DHT22;18837;46.832;16.838;2024-01-15T01:10:11;9.70;65.00
32366;DHT22;18837;46.832;16.838;2024-01-15T01:12:37;9.70;64.10
32366;DHT22;18837;46.832;16.838;2024-01-15T01:15:03;9.70;64.10
32366;DHT22;18837;46.832;16.838;2024-01-15T01:17:29;9.60;64.20
32366;DHT22;18837;46.832;16.838;2024-01-15T01:19:56;9.60;64.10
32366;DHT22;18837;46.832;16.838;2024-01-15T01:22:22;9.60;64.50
32366;DHT22;18837;46.832;16.838;2024-01-15T01:24:48;9.60;64.50
32366;DHT22;18837;46.832;16.838;2024-01-15T01:27:14;9.50;64.50
32366;DHT22;18837;46.832;16.838;2024-01-15T01:29:40;9.50;64.40
32366;DHT22;18837;46.832;16.838;2024-01-15T01:32:06;9.50;64.60
32366;DHT22;18837;46.832;16.838;2024-01-15T01:34:32;9.40;64.70
32366;DHT22;18837;46.832;16.838;2024-01-15T01:36:58;9.50;64.80
32366;DHT22;18837;46.832;16.838;2024-01-15T01:39:24;9.40;64.70
32366;DHT22;18837;46.832;16.838;2024-01-15T01:41:51;9.50;64.70
32366;DHT22;18837;46.832;16.838;2024-01-15T01:44:17;9.50;65.00
32366;DHT22;18837;46.832;16.838;2024-01-15T01:46:43;9.50;64.50
32366;DHT22;18837;46.832;16.838;2024-01-15T01:49:09;9.50;64.20
32366;DHT22;18837;46.832;16.838;2024-01-15T01:51:35;9.50;64.50
32366;DHT22;18837;46.832;16.838;2024-01-15T01:54:03;9.50;64.60
32366;DHT22;18837;46.832;16.838;2024-01-15T01:56:30;9.50;64.50
32366;DHT22;18837;46.832;16.838;2024-01-15T01:58:56;9.50;64.60
32366;DHT22;18837;46.832;16.838;2024-01-15T02:01:22;9.40;64.80
32366;DHT22;18837;46.832;16.838;2024-01-15T02:03:48;9.40;64.50
32366;DHT22;18837;46.832;16.838;2024-01-15T02:06:14;9.40;64.70
32366;DHT22;18837;46.832;16.838;2024-01-15T02:08:43;9.40;64.60
32366;DHT22;18837;46.832;16.838;2024-01-15T02:11:09;9.40;64.70
32366;DHT22;18837;46.832;16.838;2024-01-15T02:13:35;9.40;64.70
32366;DHT22;18837;46.832;16.838;2024-01-15T02:16:01;9.40;64.70
32366;DHT22;18837;46.832;16.838;2024-01-15T02:18:26;9.40;64.70
32366;DHT22;18837;46.832;16.838;2024-01-15T02:20:52;9.40;64.50
32366;DHT22;18837;46.832;16.838;2024-01-15T02:23:18;9.40;64.70
32366;DHT22;18837;46.832;16.838;2024-01-15T02:25:45;9.40;64.50
32366;DHT22;18837;46.832;16.838;2024-01-15T02:28:13;9.40;64.60
32366;DHT22;18837;46.832;16.838;2024-01-15T02:30:40;9.40;64.50
32366;DHT22;18837;46.832;16.838;2024-01-15T02:33:11;9.30;65.80
32366;DHT22;18837;46.832;16.838;2024-01-15T02:35:36;9.40;64.90
32366;DHT22;18837;46.832;16.838;2024-01-15T02:38:03;9.30;64.80
32366;DHT22;18837;46.832;16.838;2024-01-15T02:40:29;9.30;65.00
32366;DHT22;18837;46.832;16.838;2024-01-15T02:42:55;9.30;65.10
32366;DHT22;18837;46.832;16.838;2024-01-15T02:45:21;9.30;65.00
32366;DHT22;18837;46.832;16.838;2024-01-15T02:47:47;9.30;65.10
32366;DHT22;18837;46.832;16.838;2024-01-15T02:50:14;9.30;64.90
32366;DHT22;18837;46.832;16.838;2024-01-15T02:52:41;9.30;65.00
32366;DHT22;18837;46.832;16.838;2024-01-15T02:55:07;9.30;65.10
32366;DHT22;18837;46.832;16.838;2024-01-15T02:57:34;9.30;65.00
32366;DHT22;18837;46.832;16.838;2024-01-15T03:00:00;9.30;65.10
32366;DHT22;18837;46.832;16.838;2024-01-15T03:02:25;9.30;64.90
32366;DHT22;18837;46.832;16.838;2024-01-15T03:04:51;9.20;64.80
32366;DHT22;18837;46.832;16.838;2024-01-15T03:07:17;9.20;65.00
32366;DHT22;18837;46.832;16.838;2024-01-15T03:09:43;9.20;65.10
32366;DHT22;18837;46.832;16.838;2024-01-15T03:12:09;9.20;64.90
32366;DHT22;18837;46.832;16.838;2024-01-15T03:14:35;9.20;64.90
32366;DHT22;18837;46.832;16.838;2024-01-15T03:17:01;9.20;64.90
32366;DHT22;18837;46.832;16.838;2024-01-15T03:19:27;9.20;64.90
32366;DHT22;18837;46.832;16.838;2024-01-15T03:21:53;9.20;65.10
32366;DHT22;18837;46.832;16.838;2024-01-15T03:24:20;9.20;65.30
32366;DHT22;18837;46.832;16.838;2024-01-15T03:26:47;9.20;64.70
32366;DHT22;18837;46.832;16.838;2024-01-15T03:29:13;9.20;64.90
32366;DHT22;18837;46.832;16.838;2024-01-15T03:31:39;9.20;65.40
32366;DHT22;18837;46.832;16.838;2024-01-15T03:34:04;9.20;65.10
32366;DHT22;18837;46.832;16.838;2024-01-15T03:36:30;9.10;65.00
32366;DHT22;18837;46.832;16.838;2024-01-15T03:38:56;9.10;65.20
32366;DHT22;18837;46.832;16.838;2024-01-15T03:41:21;9.10;65.20
32366;DHT22;18837;46.832;16.838;2024-01-15T03:43:47;8.30;64.70
32366;DHT22;18837;46.832;16.838;2024-01-15T03:46:13;9.10;65.30
32366;DHT22;18837;46.832;16.838;2024-01-15T03:48:38;9.10;65.30
32366;DHT22;18837;46.832;16.838;2024-01-15T03:51:04;9.10;65.20
32366;DHT22;18837;46.832;16.838;2024-01-15T03:53:30;9.10;65.20
32366;DHT22;18837;46.832;16.838;2024-01-15T03:55:56;9.10;65.20
32366;DHT22;18837;46.832;16.838;2024-01-15T03:58:23;9.10;65.10
32366;DHT22;18837;46.832;16.838;2024-01-15T04:00:49;9.10;65.20
32366;DHT22;18837;46.832;16.838;2024-01-15T04:03:15;9.10;65.00
32366;DHT22;18837;46.832;16.838;2024-01-15T04:05:41;9.10;65.20
32366;DHT22;18837;46.832;16.838;2024-01-15T04:08:07;9.00;65.20
32366;DHT22;18837;46.832;16.838;2024-01-15T04:10:33;9.00;65.50
32366;DHT22;18837;46.832;16.838;2024-01-15T04:12:59;9.00;65.60
32366;DHT22;18837;46.832;16.838;2024-01-15T04:15:27;9.00;65.60
32366;DHT22;18837;46.832;16.838;2024-01-15T04:17:53;9.00;65.30
32366;DHT22;18837;46.832;16.838;2024-01-15T04:20:19;9.00;65.70
32366;DHT22;18837;46.832;16.838;2024-01-15T04:22:44;9.00;65.40
32366;DHT22;18837;46.832;16.838;2024-01-15T04:25:10;9.00;65.50
32366;DHT22;18837;46.832;16.838;2024-01-15T04:27:36;9.00;65.60
32366;DHT22;18837;46.832;16.838;2024-01-15T04:30:03;9.00;65.80
32366;DHT22;18837;46.832;16.838;2024-01-15T04:32:28;9.00;65.40
32366;DHT22;18837;46.832;16.838;2024-01-15T04:34:56;9.00;65.50
32366;DHT22;18837;46.832;16.838;2024-01-15T04:37:23;9.10;65.20
32366;DHT22;18837;46.832;16.838;2024-01-15T04:39:49;9.00;65.50
32366;DHT22;18837;46.832;16.838;2024-01-15T04:42:18;9.00;65.50
32366;DHT22;18837;46.832;16.838;2024-01-15T04:44:44;9.00;65.30
32366;DHT22;18837;46.832;16.838;2024-01-15T04:47:10;9.00;65.80
32366;DHT22;18837;46.832;16.838;2024-01-15T04:49:35;9.00;65.40
32366;DHT22;18837;46.832;16.838;2024-01-15T04:52:02;9.00;65.40
32366;DHT22;18837;46.832;16.838;2024-01-15T04:54:28;8.90;65.40
32366;DHT22;18837;46.832;16.838;2024-01-15T04:56:54;9.00;65.60
32366;DHT22;18837;46.832;16.838;2024-01-15T04:59:21;8.90;65.80
32366;DHT22;18837;46.832;16.838;2024-01-15T05:01:46;8.90;65.50
32366;DHT22;18837;46.832;16.838;2024-01-15T05:06:47;8.90;64.90
32366;DHT22;18837;46.832;16.838;2024-01-15T05:09:13;9.00;65.30
32366;DHT22;18837;46.832;16.838;2024-01-15T05:11:39;8.90;65.40
32366;DHT22;18837;46.832;16.838;2024-01-15T05:14:05;8.90;65.50
32366;DHT22;18837;46.832;16.838;2024-01-15T05:16:31;8.90;65.60
32366;DHT22;18837;46.832;16.838;2024-01-15T05:18:57;9.00;65.80
32366;DHT22;18837;46.832;16.838;2024-01-15T05:21:32;9.00;65.80
32366;DHT22;18837;46.832;16.838;2024-01-15T05:23:57;9.00;65.40
32366;DHT22;18837;46.832;16.838;2024-01-15T05:26:26;8.90;65.60
32366;DHT22;18837;46.832;16.838;2024-01-15T05:28:52;8.90;65.40
32366;DHT22;18837;46.832;16.838;2024-01-15T05:31:18;8.80;65.80
32366;DHT22;18837;46.832;16.838;2024-01-15T05:33:43;8.90;65.50
32366;DHT22;18837;46.832;16.838;2024-01-15T05:36:09;8.80;65.40
32366;DHT22;18837;46.832;16.838;2024-01-15T05:38:35;8.90;65.50
32366;DHT22;18837;46.832;16.838;2024-01-15T05:41:00;8.90;65.60
32366;DHT22;18837;46.832;16.838;2024-01-15T05:43:26;8.90;65.60
32366;DHT22;18837;46.832;16.838;2024-01-15T05:45:57;8.90;65.80
32366;DHT22;18837;46.832;16.838;2024-01-15T05:48:23;8.80;65.40
32366;DHT22;18837;46.832;16.838;2024-01-15T05:50:49;8.80;65.60
32366;DHT22;18837;46.832;16.838;2024-01-15T05:53:15;8.80;65.80
32366;DHT22;18837;46.832;16.838;2024-01-15T05:55:41;8.80;65.50
32366;DHT22;18837;46.832;16.838;2024-01-15T05:58:06;8.70;65.70
32366;DHT22;18837;46.832;16.838;2024-01-15T06:00:32;8.70;65.60
32366;DHT22;18837;46.832;16.838;2024-01-15T06:02:59;8.70;65.80
32366;DHT22;18837;46.832;16.838;2024-01-15T06:05:25;8.70;66.00
32366;DHT22;18837;46.832;16.838;2024-01-15T06:07:51;8.70;66.00
32366;DHT22;18837;46.832;16.838;2024-01-15T06:10:17;8.70;65.90
32366;DHT22;18837;46.832;16.838;2024-01-15T06:12:43;8.70;66.00
32366;DHT22;18837;46.832;16.838;2024-01-15T06:15:10;8.70;65.90
32366;DHT22;18837;46.832;16.838;2024-01-15T06:17:36;8.70;65.70
32366;DHT22;18837;46.832;16.838;2024-01-15T06:20:03;8.80;65.70
32366;DHT22;18837;46.832;16.838;2024-01-15T06:22:29;8.70;65.90
32366;DHT22;18837;46.832;16.838;2024-01-15T06:24:54;8.70;65.80
32366;DHT22;18837;46.832;16.838;2024-01-15T06:27:21;8.40;62.50
32366;DHT22;18837;46.832;16.838;2024-01-15T06:29:47;8.20;63.90
32366;DHT22;18837;46.832;16.838;2024-01-15T06:32:13;8.20;65.10
32366;DHT22;18837;46.832;16.838;2024-01-15T06:34:38;8.30;65.60
32366;DHT22;18837;46.832;16.838;2024-01-15T06:37:05;8.30;66.70
32366;DHT22;18837;46.832;16.838;2024-01-15T06:39:31;8.30;65.90
32366;DHT22;18837;46.832;16.838;2024-01-15T06:41:56;8.30;66.30
32366;DHT22;18837;46.832;16.838;2024-01-15T06:44:22;8.30;66.20
32366;DHT22;18837;46.832;16.838;2024-01-15T06:46:48;8.40;66.30
32366;DHT22;18837;46.832;16.838;2024-01-15T06:49:14;8.30;66.30
32366;DHT22;18837;46.832;16.838;2024-01-15T06:51:46;8.40;66.40
32366;DHT22;18837;46.832;16.838;2024-01-15T06:56:48;8.40;67.30
32366;DHT22;18837;46.832;16.838;2024-01-15T06:59:13;8.40;66.50
32366;DHT22;18837;46.832;16.838;2024-01-15T07:01:39;8.30;66.60
32366;DHT22;18837;46.832;16.838;2024-01-15T07:04:06;8.30;66.70
32366;DHT22;18837;46.832;16.838;2024-01-15T07:06:32;8.30;66.90
32366;DHT22;18837;46.832;16.838;2024-01-15T07:08:58;8.30;67.20
32366;DHT22;18837;46.832;16.838;2024-01-15T07:11:23;8.30;66.90
32366;DHT22;18837;46.832;16.838;2024-01-15T07:13:49;8.30;67.00
32366;DHT22;18837;46.832;16.838;2024-01-15T07:16:15;8.30;67.20
32366;DHT22;18837;46.832;16.838;2024-01-15T07:18:41;8.30;67.00
32366;DHT22;18837;46.832;16.838;2024-01-15T07:21:07;8.40;67.10
32366;DHT22;18837;46.832;16.838;2024-01-15T07:23:33;8.40;67.00
32366;DHT22;18837;46.832;16.838;2024-01-15T07:26:05;8.40;67.00
32366;DHT22;18837;46.832;16.838;2024-01-15T07:28:31;8.40;66.80
32366;DHT22;18837;46.832;16.838;2024-01-15T07:31:00;8.30;67.20
32366;DHT22;18837;46.832;16.838;2024-01-15T07:33:27;8.30;66.90
32366;DHT22;18837;46.832;16.838;2024-01-15T07:35:53;8.30;67.10
32366;DHT22;18837;46.832;16.838;2024-01-15T07:38:19;8.30;67.10
32366;DHT22;18837;46.832;16.838;2024-01-15T07:40:45;8.20;66.80
32366;DHT22;18837;46.832;16.838;2024-01-15T07:43:15;8.30;67.00
32366;DHT22;18837;46.832;16.838;2024-01-15T07:45:40;8.20;67.00
32366;DHT22;18837;46.832;16.838;2024-01-15T07:48:06;8.20;66.90
32366;DHT22;18837;46.832;16.838;2024-01-15T07:50:32;8.20;66.90
32366;DHT22;18837;46.832;16.838;2024-01-15T07:52:58;8.30;67.00
32366;DHT22;18837;46.832;16.838;2024-01-15T07:55:23;8.30;66.90
32366;DHT22;18837;46.832;16.838;2024-01-15T07:57:49;8.30;66.80
32366;DHT22;18837;46.832;16.838;2024-01-15T08:00:23;8.30;67.30
32366;DHT22;18837;46.832;16.838;2024-01-15T08:03:27;8.30;66.90
32366;DHT22;18837;46.832;16.838;2024-01-15T08:05:56;8.50;67.90
32366;DHT22;18837;46.832;16.838;2024-01-15T08:08:25;7.60;66.50
32366;DHT22;18837;46.832;16.838;2024-01-15T08:10:54;8.30;66.90
32366;DHT22;18837;46.832;16.838;2024-01-15T08:13:20;8.30;67.00
32366;DHT22;18837;46.832;16.838;2024-01-15T08:15:46;8.30;67.30
32366;DHT22;18837;46.832;16.838;2024-01-15T08:18:12;8.30;67.00
32366;DHT22;18837;46.832;16.838;2024-01-15T08:20:39;8.30;67.40
32366;DHT22;18837;46.832;16.838;2024-01-15T08:23:05;8.40;67.80
32366;DHT22;18837;46.832;16.838;2024-01-15T08:25:31;8.40;67.30
32366;DHT22;18837;46.832;16.838;2024-01-15T08:27:57;8.40;67.30
32366;DHT22;18837;46.832;16.838;2024-01-15T08:30:23;8.50;67.00
32366;DHT22;18837;46.832;16.838;2024-01-15T08:32:56;8.50;67.40
32366;DHT22;18837;46.832;16.838;2024-01-15T08:35:28;8.50;67.00
32366;DHT22;18837;46.832;16.838;2024-01-15T08:38:03;8.50;66.50
32366;DHT22;18837;46.832;16.838;2024-01-15T08:40:29;8.50;67.20
32366;DHT22;18837;46.832;16.838;2024-01-15T08:42:55;8.50;67.00
32366;DHT22;18837;46.832;16.838;2024-01-15T08:45:20;8.60;67.00
32366;DHT22;18837;46.832;16.838;2024-01-15T08:47:47;8.60;67.00
32366;DHT22;18837;46.832;16.838;2024-01-15T08:50:13;8.60;67.00
32366;DHT22;18837;46.832;16.838;2024-01-15T08:52:39;8.60;68.40
32366;DHT22;18837;46.832;16.838;2024-01-15T08:55:05;8.60;67.20
32366;DHT22;18837;46.832;16.838;2024-01-15T08:57:32;8.60;67.20
32366;DHT22;18837;46.832;16.838;2024-01-15T08:59:58;8.70;67.10
32366;DHT22;18837;46.832;16.838;2024-01-15T09:02:25;8.60;67.30
32366;DHT22;18837;46.832;16.838;2024-01-15T09:04:50;8.70;67.10
32366;DHT22;18837;46.832;16.838;2024-01-15T09:07:17;8.70;67.00
32366;DHT22;18837;46.832;16.838;2024-01-15T09:09:55;8.80;67.00
32366;DHT22;18837;46.832;16.838;2024-01-15T09:12:33;8.80;67.20
32366;DHT22;18837;46.832;16.838;2024-01-15T09:14:59;8.80;67.30
32366;DHT22;18837;46.832;16.838;2024-01-15T09:17:25;8.80;67.30
32366;DHT22;18837;46.832;16.838;2024-01-15T09:19:51;8.80;67.50
32366;DHT22;18837;46.832;16.838;2024-01-15T09:22:17;8.80;68.10
32366;DHT22;18837;46.832;16.838;2024-01-15T09:24:46;8.80;68.00
32366;DHT22;18837;46.832;16.838;2024-01-15T09:27:12;8.90;67.60
32366;DHT22;18837;46.832;16.838;2024-01-15T09:29:38;8.90;67.70
32366;DHT22;18837;46.832;16.838;2024-01-15T09:32:08;8.90;68.00
32366;DHT22;18837;46.832;16.838;2024-01-15T09:34:34;8.90;67.80
32366;DHT22;18837;46.832;16.838;2024-01-15T09:37:00;9.00;67.60
32366;DHT22;18837;46.832;16.838;2024-01-15T09:39:27;9.10;67.90
32366;DHT22;18837;46.832;16.838;2024-01-15T09:41:54;9.10;67.60
32366;DHT22;18837;46.832;16.838;2024-01-15T09:44:21;9.10;67.60
32366;DHT22;18837;46.832;16.838;2024-01-15T09:46:47;9.10;67.60
32366;DHT22;18837;46.832;16.838;2024-01-15T09:49:16;9.20;67.50
32366;DHT22;18837;46.832;16.838;2024-01-15T09:51:42;9.20;67.60
32366;DHT22;18837;46.832;16.838;2024-01-15T09:54:09;9.20;67.60
32366;DHT22;18837;46.832;16.838;2024-01-15T09:56:35;9.20;67.60
32366;DHT22;18837;46.832;16.838;2024-01-15T09:59:01;9.30;67.60
32366;DHT22;18837;46.832;16.838;2024-01-15T10:01:31;9.20;67.60
32366;DHT22;18837;46.832;16.838;2024-01-15T10:03:58;9.30;67.60
32366;DHT22;18837;46.832;16.838;2024-01-15T10:06:27;9.30;67.80
32366;DHT22;18837;46.832;16.838;2024-01-15T10:08:57;9.30;67.80
32366;DHT22;18837;46.832;16.838;2024-01-15T10:11:26;9.40;67.70
32366;DHT22;18837;46.832;16.838;2024-01-15T10:14:02;9.40;67.60
32366;DHT22;18837;46.832;16.838;2024-01-15T10:16:30;9.50;67.60
32366;DHT22;18837;46.832;16.838;2024-01-15T10:18:56;9.60;67.40
32366;DHT22;18837;46.832;16.838;2024-01-15T10:21:21;9.60;67.40
32366;DHT22;18837;46.832;16.838;2024-01-15T10:23:47;9.60;67.60
32366;DHT22;18837;46.832;16.838;2024-01-15T10:26:13;9.60;67.40
32366;DHT22;18837;46.832;16.838;2024-01-15T10:28:39;9.60;67.80
32366;DHT22;18837;46.832;16.838;2024-01-15T10:31:05;9.70;67.70
32366;DHT22;18837;46.832;16.838;2024-01-15T10:33:36;9.70;67.70
32366;DHT22;18837;46.832;16.838;2024-01-15T10:36:01;9.70;67.70
32366;DHT22;18837;46.832;16.838;2024-01-15T10:38:27;9.70;67.60
32366;DHT22;18837;46.832;16.838;2024-01-15T10:40:56;9.80;68.00
32366;DHT22;18837;46.832;16.838;2024-01-15T10:43:23;9.80;68.00
32366;DHT22;18837;46.832;16.838;2024-01-15T10:45:50;9.80;67.30
32366;DHT22;18837;46.832;16.838;2024-01-15T10:48:19;9.90;67.40
32366;DHT22;18837;46.832;16.838;2024-01-15T10:51:21;9.90;67.50
32366;DHT22;18837;46.832;16.838;2024-01-15T10:53:48;9.90;68.30
32366;DHT22;18837;46.832;16.838;2024-01-15T10:56:14;10.00;67.40
32366;DHT22;18837;46.832;16.838;2024-01-15T10:58:40;10.00;67.60
32366;DHT22;18837;46.832;16.838;2024-01-15T11:01:07;10.00;67.40
32366;DHT22;18837;46.832;16.838;2024-01-15T11:03:33;10.10;67.70
32366;DHT22;18837;46.832;16.838;2024-01-15T11:06:00;10.10;67.60
32366;DHT22;18837;46.832;16.838;2024-01-15T11:08:27;10.10;67.80
32366;DHT22;18837;46.832;16.838;2024-01-15T11:10:54;10.10;67.90
32366;DHT22;18837;46.832;16.838;2024-01-15T11:13:40;10.10;67.90
32366;DHT22;18837;46.832;16.838;2024-01-15T11:16:15;10.20;67.90
32366;DHT22;18837;46.832;16.838;2024-01-15T11:19:01;10.20;67.80
32366;DHT22;18837;46.832;16.838;2024-01-15T11:21:48;10.20;67.80
32366;DHT22;18837;46.832;16.838;2024-01-15T11:24:39;10.30;68.50
32366;DHT22;18837;46.832;16.838;2024-01-15T11:27:10;10.30;68.10
32366;DHT22;18837;46.832;16.838;2024-01-15T11:29:37;10.30;67.80
32366;DHT22;18837;46.832;16.838;2024-01-15T11:32:04;10.30;67.70
32366;DHT22;18837;46.832;16.838;2024-01-15T11:34:58;10.30;67.80
32366;DHT22;18837;46.832;16.838;2024-01-15T11:37:27;10.30;67.70
32366;DHT22;18837;46.832;16.838;2024-01-15T11:39:55;10.30;67.80
32366;DHT22;18837;46.832;16.838;2024-01-15T11:42:26;10.30;67.80
32366;DHT22;18837;46.832;16.838;2024-01-15T11:44:53;10.30;68.20
32366;DHT22;18837;46.832;16.838;2024-01-15T11:50:03;10.20;68.00
32366;DHT22;18837;46.832;16.838;2024-01-15T11:52:37;10.30;67.90
32366;DHT22;18837;46.832;16.838;2024-01-15T11:55:26;10.30;68.10
32366;DHT22;18837;46.832;16.838;2024-01-15T11:58:09;10.30;68.10
32366;DHT22;18837;46.832;16.838;2024-01-15T12:00:54;10.30;68.00
32366;DHT22;18837;46.832;16.838;2024-01-15T12:03:21;10.30;68.30
32366;DHT22;18837;46.832;16.838;2024-01-15T12:05:47;10.40;68.20
32366;DHT22;18837;46.832;16.838;2024-01-15T12:08:13;10.40;68.00
32366;DHT22;18837;46.832;16.838;2024-01-15T12:10:40;10.40;68.40
32366;DHT22;18837;46.832;16.838;2024-01-15T12:13:11;10.30;68.30
32366;DHT22;18837;46.832;16.838;2024-01-15T12:15:37;10.40;68.20
32366;DHT22;18837;46.832;16.838;2024-01-15T12:18:08;10.40;68.30
32366;DHT22;18837;46.832;16.838;2024-01-15T12:20:34;10.40;68.50
32366;DHT22;18837;46.832;16.838;2024-01-15T12:23:00;10.40;68.30
32366;DHT22;18837;46.832;16.838;2024-01-15T12:25:27;10.40;68.50
32366;DHT22;18837;46.832;16.838;2024-01-15T12:27:53;10.50;68.80
32366;DHT22;18837;46.832;16.838;2024-01-15T12:30:26;10.50;68.60
32366;DHT22;18837;46.832;16.838;2024-01-15T12:32:52;10.60;68.40
32366;DHT22;18837;46.832;16.838;2024-01-15T12:35:18;10.60;68.40
32366;DHT22;18837;46.832;16.838;2024-01-15T12:37:44;10.70;68.30
32366;DHT22;18837;46.832;16.838;2024-01-15T12:40:11;10.60;68.50
32366;DHT22;18837;46.832;16.838;2024-01-15T12:42:41;10.60;68.50
32366;DHT22;18837;46.832;16.838;2024-01-15T12:45:19;10.60;68.60
32366;DHT22;18837;46.832;16.838;2024-01-15T12:47:51;10.60;68.30
32366;DHT22;18837;46.832;16.838;2024-01-15T12:50:27;10.60;68.70
32366;DHT22;18837;46.832;16.838;2024-01-15T12:52:53;10.60;68.80
32366;DHT22;18837;46.832;16.838;2024-01-15T12:55:19;10.60;68.50
32366;DHT22;18837;46.832;16.838;2024-01-15T12:57:44;10.60;68.50
32366;DHT22;18837;46.832;16.838;2024-01-15T13:00:11;10.60;68.50
32366;DHT22;18837;46.832;16.838;2024-01-15T13:03:01;10.60;68.60
32366;DHT22;18837;46.832;16.838;2024-01-15T13:05:46;10.70;67.90
32366;DHT22;18837;46.832;16.838;2024-01-15T13:08:12;10.70;68.40
32366;DHT22;18837;46.832;16.838;2024-01-15T13:10:38;10.70;68.50
32366;DHT22;18837;46.832;16.838;2024-01-15T13:13:05;10.70;68.70
32366;DHT22;18837;46.832;16.838;2024-01-15T13:15:30;10.60;68.70
32366;DHT22;18837;46.832;16.838;2024-01-15T13:17:56;10.60;68.60
32366;DHT22;18837;46.832;16.838;2024-01-15T13:20:47;10.60;68.50
32366;DHT22;18837;46.832;16.838;2024-01-15T13:23:33;10.60;68.10
32366;DHT22;18837;46.832;16.838;2024-01-15T13:26:02;10.60;68.20
32366;DHT22;18837;46.832;16.838;2024-01-15T13:28:28;10.60;68.50
32366;DHT22;18837;46.832;16.838;2024-01-15T13:30:53;10.60;68.50
32366;DHT22;18837;46.832;16.838;2024-01-15T13:33:19;10.70;68.30
32366;DHT22;18837;46.832;16.838;2024-01-15T13:35:45;10.70;68.30
32366;DHT22;18837;46.832;16.838;2024-01-15T13:38:15;10.70;68.60
32366;DHT22;18837;46.832;16.838;2024-01-15T13:40:42;10.70;68.30
32366;DHT22;18837;46.832;16.838;2024-01-15T13:43:11;10.70;68.40
32366;DHT22;18837;46.832;16.838;2024-01-15T13:45:37;10.70;68.30
32366;DHT22;18837;46.832;16.838;2024-01-15T13:48:04;10.70;68.50
32366;DHT22;18837;46.832;16.838;2024-01-15T13:50:34;10.60;68.20
32366;DHT22;18837;46.832;16.838;2024-01-15T13:53:02;10.60;68.50
32366;DHT22;18837;46.832;16.838;2024-01-15T13:55:39;10.70;68.60
32366;DHT22;18837;46.832;16.838;2024-01-15T13:58:07;10.70;68.80
32366;DHT22;18837;46.832;16.838;2024-01-15T14:00:32;10.70;69.40
32366;DHT22;18837;46.832;16.838;2024-01-15T14:02:58;10.60;68.70
32366;DHT22;18837;46.832;16.838;2024-01-15T14:05:24;10.70;68.70
32366;DHT22;18837;46.832;16.838;2024-01-15T14:07:50;10.70;68.80
32366;DHT22;18837;46.832;16.838;2024-01-15T14:10:16;10.70;68.60
32366;DHT22;18837;46.832;16.838;2024-01-15T14:12:42;10.70;68.50
32366;DHT22;18837;46.832;16.838;2024-01-15T14:15:14;10.70;68.40
32366;DHT22;18837;46.832;16.838;2024-01-15T14:17:40;10.70;68.60
32366;DHT22;18837;46.832;16.838;2024-01-15T14:20:07;10.70;68.80
32366;DHT22;18837;46.832;16.838;2024-01-15T14:22:34;10.70;68.60
32366;DHT22;18837;46.832;16.838;2024-01-15T14:25:00;10.60;68.50
32366;DHT22;18837;46.832;16.838;2024-01-15T14:27:26;10.60;69.00
32366;DHT22;18837;46.832;16.838;2024-01-15T14:30:01;10.60;68.90
32366;DHT22;18837;46.832;16.838;2024-01-15T14:32:39;10.60;68.90
32366;DHT22;18837;46.832;16.838;2024-01-15T14:35:06;10.60;68.80
32366;DHT22;18837;46.832;16.838;2024-01-15T14:37:36;10.60;69.20
32366;DHT22;18837;46.832;16.838;2024-01-15T14:40:02;10.60;68.90
32366;DHT22;18837;46.832;16.838;2024-01-15T14:42:29;10.60;69.00
32366;DHT22;18837;46.832;16.838;2024-01-15T14:44:55;10.70;69.00
32366;DHT22;18837;46.832;16.838;2024-01-15T14:47:34;10.70;68.80
32366;DHT22;18837;46.832;16.838;2024-01-15T14:50:01;10.70;68.70
32366;DHT22;18837;46.832;16.838;2024-01-15T14:52:27;10.70;68.80
32366;DHT22;18837;46.832;16.838;2024-01-15T14:54:52;10.60;68.90
32366;DHT22;18837;46.832;16.838;2024-01-15T14:57:18;10.70;68.90
32366;DHT22;18837;46.832;16.838;2024-01-15T14:59:44;10.70;68.80
32366;DHT22;18837;46.832;16.838;2024-01-15T15:02:10;10.70;68.80
32366;DHT22;18837;46.832;16.838;2024-01-15T15:05:02;10.70;68.70
32366;DHT22;18837;46.832;16.838;2024-01-15T15:07:34;10.70;68.70
32366;DHT22;18837;46.832;16.838;2024-01-15T15:10:02;10.70;68.10
32366;DHT22;18837;46.832;16.838;2024-01-15T15:12:30;10.70;68.90
32366;DHT22;18837;46.832;16.838;2024-01-15T15:14:56;10.70;68.80
32366;DHT22;18837;46.832;16.838;2024-01-15T15:17:22;10.70;68.80
32366;DHT22;18837;46.832;16.838;2024-01-15T15:19:47;10.80;68.70
32366;DHT22;18837;46.832;16.838;2024-01-15T15:22:13;10.80;68.60
32366;DHT22;18837;46.832;16.838;2024-01-15T15:24:39;10.70;68.40
32366;DHT22;18837;46.832;16.838;2024-01-15T15:27:06;10.70;68.30
32366;DHT22;18837;46.832;16.838;2024-01-15T15:29:32;10.70;68.60
32366;DHT22;18837;46.832;16.838;2024-01-15T15:32:01;10.70;68.80
32366;DHT22;18837;46.832;16.838;2024-01-15T15:34:27;10.60;68.80
32366;DHT22;18837;46.832;16.838;2024-01-15T15:36:53;10.60;68.80
32366;DHT22;18837;46.832;16.838;2024-01-15T15:39:19;10.60;68.90